Time;durP1;ratioP1;P1;durP2;ratioP2;P2;SDS_P1;SDS_P2;PMS_P1;PMS_P2;Temp;Humidity;BMP_temperature;BMP_pressure;BME280_temperature;BME280_humidity;BME280_pressure;Samples;Min_cycle;Max_cycle;Signal;HPM_P1;HPM_P2
2022/02/26 00:00:13;;;;;;;0.20;0.20;;;2.00;99.90;;;;;;5136627;27;20039;-87
2022/02/26 00:02:40;;;;;;;0.20;0.20;;;1.90;99.90;;;;;;5120518;27;20096;-87
2022/02/26 00:05:07;;;;;;;0.30;0.30;;;1.90;99.90;;;;;;5136706;27;20111;-95
2022/02/26 00:07:34;;;;;;;0.20;0.20;;;1.90;99.90;;;;;;5119659;27;20058;-96
2022/02/26 00:10:01;;;;;;;0.20;0.20;;;1.80;99.90;;;;;;5102604;27;20495;-96
2022/02/26 00:12:28;;;;;;;0.30;0.30;;;2.50;99.90;;;;;;5119596;27;20049;-87
2022/02/26 00:14:56;;;;;;;0.20;0.20;;;1.70;99.90;;;;;;5136029;27;20118;-88
2022/02/26 00:17:22;;;;;;;0.28;0.28;;;2.50;99.90;;;;;;5119668;27;20035;-87
2022/02/26 00:19:52;;;;;;;0.20;0.20;;;2.70;99.90;;;;;;5136188;27;20126;-87
2022/02/26 00:22:19;;;;;;;0.15;0.15;;;1.50;99.90;;;;;;5136286;27;20032;-87
2022/02/26 00:24:45;;;;;;;0.20;0.20;;;1.50;99.90;;;;;;5136621;27;20035;-95
2022/02/26 00:27:12;;;;;;;0.15;0.15;;;2.90;99.90;;;;;;5102275;27;20039;-95
2022/02/26 00:29:40;;;;;;;0.20;0.20;;;2.30;99.90;;;;;;5119496;27;20039;-87
2022/02/26 00:32:07;;;;;;;0.20;0.20;;;2.50;99.90;;;;;;5102753;27;20100;-87
2022/02/26 00:34:34;;;;;;;0.20;0.20;;;1.30;99.90;;;;;;5119505;27;20152;-95
2022/02/26 00:37:00;;;;;;;0.50;0.50;;;1.30;99.90;;;;;;5135629;27;20133;-87
2022/02/26 00:39:27;;;;;;;0.20;0.20;;;1.60;99.90;;;;;;5119096;27;20091;-94
2022/02/26 00:41:54;;;;;;;0.20;0.20;;;2.00;99.90;;;;;;5119133;27;20035;-87
2022/02/26 00:44:21;;;;;;;0.20;0.20;;;1.10;99.90;;;;;;5153121;27;20043;-94
2022/02/26 00:46:47;;;;;;;0.40;0.40;;;2.30;99.90;;;;;;5119008;27;20039;-95
2022/02/26 00:52:02;;;;;;;0.10;0.10;;;1.10;99.90;;;;;;5138453;27;20091;-87
2022/02/26 00:54:29;;;;;;;0.20;0.20;;;1.10;99.90;;;;;;5102392;27;20127;-95
2022/02/26 00:56:56;;;;;;;0.20;0.20;;;2.00;99.90;;;;;;5119400;27;20031;-95
2022/02/26 00:59:23;;;;;;;0.10;0.10;;;1.30;99.90;;;;;;5135312;27;20513;-87
2022/02/26 01:01:52;;;;;;;0.20;0.20;;;1.10;99.90;;;;;;5118628;27;20047;-87
2022/02/26 01:04:19;;;;;;;0.20;0.20;;;2.30;99.90;;;;;;5119437;27;20031;-95
2022/02/26 01:06:46;;;;;;;0.20;0.20;;;1.00;99.90;;;;;;5102272;27;20062;-95
2022/02/26 01:09:12;;;;;;;1.25;0.55;;;1.00;99.90;;;;;;5102166;27;20058;-95
2022/02/26 01:11:39;;;;;;;0.30;0.30;;;1.00;99.90;;;;;;5118904;27;20031;-87
2022/02/26 01:14:06;;;;;;;0.30;0.30;;;2.30;99.90;;;;;;5118585;27;20487;-95
2022/02/26 01:16:34;;;;;;;0.20;0.20;;;1.10;99.90;;;;;;5118610;27;20039;-95
2022/02/26 01:19:02;;;;;;;0.20;0.20;;;1.10;99.90;;;;;;5118616;27;20035;-95
2022/02/26 01:21:29;;;;;;;0.30;0.30;;;1.90;99.90;;;;;;5118944;27;20043;-95
2022/02/26 01:23:56;;;;;;;0.20;0.20;;;2.20;99.90;;;;;;5135297;27;20072;-95
2022/02/26 01:26:22;;;;;;;0.28;0.28;;;2.40;99.90;;;;;;5134934;27;20046;-94
2022/02/26 01:28:49;;;;;;;0.20;0.20;;;1.10;99.90;;;;;;5117999;27;20034;-87
2022/02/26 01:31:16;;;;;;;0.20;0.20;;;2.10;99.90;;;;;;5134435;27;20130;-87
2022/02/26 01:33:44;;;;;;;0.20;0.20;;;1.10;99.90;;;;;;5118217;27;20043;-87
2022/02/26 01:36:11;;;;;;;0.20;0.20;;;1.00;99.90;;;;;;5135195;27;20046;-86
2022/02/26 01:38:38;;;;;;;0.20;0.20;;;2.10;99.90;;;;;;5152019;27;20043;-95
2022/02/26 01:41:05;;;;;;;0.20;0.20;;;1.00;99.90;;;;;;5134956;27;20039;-95
2022/02/26 01:43:33;;;;;;;0.20;0.20;;;1.00;99.90;;;;;;5117831;27;20554;-87
2022/02/26 01:46:00;;;;;;;0.20;0.20;;;0.90;99.90;;;;;;5118348;27;20042;-87
2022/02/26 01:48:29;;;;;;;0.20;0.20;;;0.90;99.90;;;;;;5134074;27;20071;-95
2022/02/26 01:50:56;;;;;;;0.20;0.20;;;0.80;99.90;;;;;;5118691;27;20073;-94
2022/02/26 01:53:23;;;;;;;0.10;0.10;;;2.10;99.90;;;;;;5134553;28;20569;-86
2022/02/26 01:55:50;;;;;;;0.30;0.30;;;1.80;99.90;;;;;;5101329;27;20046;-95
2022/02/26 01:58:17;;;;;;;0.20;0.20;;;0.90;99.90;;;;;;5134538;27;20039;-87
2022/02/26 02:00:44;;;;;;;0.30;0.30;;;0.90;99.90;;;;;;5134604;27;20043;-94
2022/02/26 02:03:10;;;;;;;0.20;0.20;;;0.90;99.90;;;;;;5100800;27;20104;-94
2022/02/26 02:05:37;;;;;;;0.20;0.20;;;1.00;99.90;;;;;;5118079;28;20058;-94
2022/02/26 02:08:04;;;;;;;0.20;0.20;;;0.90;99.90;;;;;;5134272;28;20047;-86
2022/02/26 02:10:33;;;;;;;0.20;0.20;;;0.80;99.90;;;;;;5117900;28;20101;-95
2022/02/26 02:13:00;;;;;;;0.20;0.20;;;0.80;99.90;;;;;;5134580;28;20104;-87
2022/02/26 02:15:39;;;;;;;0.30;0.30;;;1.20;99.90;;;;;;5100456;28;20498;-86
2022/02/26 02:18:08;;;;;;;0.30;0.30;;;0.70;99.90;;;;;;5134574;28;20126;-94
2022/02/26 02:20:36;;;;;;;0.20;0.20;;;0.70;99.90;;;;;;5134004;28;20039;-87
2022/02/26 02:23:04;;;;;;;0.20;0.20;;;0.60;99.90;;;;;;5134353;28;20036;-95
2022/02/26 02:25:32;;;;;;;0.20;0.20;;;0.60;99.90;;;;;;5134414;28;20085;-94
2022/02/26 02:28:00;;;;;;;0.20;0.20;;;0.60;99.90;;;;;;5134757;28;20035;-87
2022/02/26 02:30:28;;;;;;;0.20;0.20;;;1.40;99.90;;;;;;5117426;28;20039;-87
2022/02/26 02:32:56;;;;;;;0.20;0.20;;;2.00;99.90;;;;;;5117818;28;20047;-87
2022/02/26 02:35:30;;;;;;;0.30;0.30;;;0.70;99.90;;;;;;5117084;28;20039;-95
2022/02/26 02:37:59;;;;;;;0.20;0.20;;;0.70;99.90;;;;;;5134209;28;20046;-85
2022/02/26 02:40:26;;;;;;;0.20;0.20;;;0.70;99.90;;;;;;5117122;28;20097;-87
2022/02/26 02:42:53;;;;;;;0.30;0.30;;;0.70;99.90;;;;;;5100854;28;20070;-87
2022/02/26 02:45:21;;;;;;;0.20;0.20;;;1.90;99.90;;;;;;5100505;28;20043;-94
2022/02/26 02:47:48;;;;;;;0.17;0.17;;;1.70;99.90;;;;;;5134632;28;20035;-94
2022/02/26 02:50:21;;;;;;;0.30;0.30;;;2.00;99.90;;;;;;5119264;28;20152;-86
2022/02/26 02:52:48;;;;;;;0.20;0.20;;;1.80;99.90;;;;;;5133897;28;20156;-95
2022/02/26 02:55:15;;;;;;;0.20;0.20;;;1.70;99.90;;;;;;5100308;28;20043;-88
2022/02/26 02:57:44;;;;;;;0.30;0.30;;;1.80;99.90;;;;;;5117794;28;20047;-95
2022/02/26 03:00:13;;;;;;;0.20;0.20;;;0.50;99.90;;;;;;5135889;27;20047;-87
2022/02/26 03:02:40;;;;;;;0.30;0.30;;;0.40;99.90;;;;;;5120882;27;20072;-87
2022/02/26 03:05:08;;;;;;;0.20;0.20;;;0.40;99.90;;;;;;5137907;27;20093;-86
2022/02/26 03:07:36;;;;;;;0.30;0.30;;;0.30;99.90;;;;;;5120332;27;20051;-94
2022/02/26 03:10:06;;;;;;;0.20;0.20;;;1.30;99.90;;;;;;5138051;27;20050;-92
2022/02/26 03:12:33;;;;;;;0.20;0.20;;;0.30;99.90;;;;;;5120258;27;20039;-86
2022/02/26 03:15:00;;;;;;;0.30;0.30;;;0.30;99.90;;;;;;5137522;27;20039;-93
2022/02/26 03:17:27;;;;;;;0.20;0.20;;;0.20;99.90;;;;;;5120651;27;20488;-95
2022/02/26 03:19:54;;;;;;;0.28;0.28;;;0.90;99.90;;;;;;5103850;27;20039;-87
2022/02/26 03:22:21;;;;;;;0.20;0.20;;;0.80;99.90;;;;;;5137288;27;20132;-93
2022/02/26 03:24:48;;;;;;;0.30;0.30;;;0.10;99.90;;;;;;5137714;27;20043;-86
2022/02/26 03:27:15;;;;;;;0.30;0.30;;;1.20;99.90;;;;;;5121013;27;20064;-95
2022/02/26 03:29:42;;;;;;;0.28;0.28;;;1.00;99.90;;;;;;5137339;27;20433;-87
2022/02/26 03:32:10;;;;;;;0.22;0.22;;;1.20;99.90;;;;;;5121137;27;20129;-94
2022/02/26 03:34:38;;;;;;;0.20;0.20;;;0.60;99.90;;;;;;5137890;27;20070;-94
2022/02/26 03:37:05;;;;;;;0.30;0.30;;;0.90;99.90;;;;;;5138082;27;20130;-86
2022/02/26 03:39:31;;;;;;;0.30;0.30;;;0.80;99.90;;;;;;5136993;27;20091;-93
2022/02/26 03:42:03;;;;;;;0.20;0.20;;;1.30;99.90;;;;;;5137574;27;20078;-90
2022/02/26 03:44:31;;;;;;;0.30;0.30;;;0.00;99.90;;;;;;5153814;27;20046;-87
2022/02/26 03:46:59;;;;;;;0.20;0.20;;;0.70;99.90;;;;;;5120532;27;20045;-94
2022/02/26 03:49:26;;;;;;;0.20;0.20;;;0.70;99.90;;;;;;5120619;27;20031;-94
2022/02/26 03:51:53;;;;;;;0.30;0.30;;;0.70;99.90;;;;;;5137257;27;20087;-86
2022/02/26 03:54:21;;;;;;;0.40;0.40;;;0.20;99.90;;;;;;5120151;27;20058;-87
2022/02/26 03:56:48;;;;;;;0.22;0.22;;;0.80;99.90;;;;;;5136809;27;20042;-93
2022/02/26 03:59:15;;;;;;;0.20;0.20;;;-0.30;99.90;;;;;;5120809;27;20661;-92
2022/02/26 04:01:42;;;;;;;0.35;0.35;;;0.40;99.90;;;;;;5119861;27;20216;-94
2022/02/26 04:04:09;;;;;;;0.30;0.30;;;-0.30;99.90;;;;;;5137037;27;20043;-95
2022/02/26 04:06:36;;;;;;;0.20;0.20;;;0.90;99.90;;;;;;5120015;27;20491;-87
2022/02/26 04:09:03;;;;;;;0.32;0.32;;;0.70;99.90;;;;;;5119448;27;20094;-92
2022/02/26 04:11:30;;;;;;;0.20;0.20;;;0.80;99.90;;;;;;5135738;27;20487;-95
2022/02/26 04:13:57;;;;;;;0.20;0.20;;;1.00;99.90;;;;;;5119765;27;20104;-87
2022/02/26 04:16:24;;;;;;;0.20;0.20;;;1.30;99.90;;;;;;5103113;27;20046;-87
2022/02/26 04:18:50;;;;;;;0.30;0.30;;;1.20;99.90;;;;;;5119887;27;20126;-94
2022/02/26 04:21:17;;;;;;;0.30;0.30;;;-0.40;99.90;;;;;;5136489;27;20047;-95
2022/02/26 04:23:44;;;;;;;0.30;0.30;;;-0.30;99.90;;;;;;5136118;27;20046;-95
2022/02/26 04:26:11;;;;;;;0.30;0.30;;;-1.00;99.90;;;;;;5103023;27;20085;-95
2022/02/26 04:28:38;;;;;;;0.20;0.20;;;0.70;99.90;;;;;;5136595;27;20043;-93
2022/02/26 04:31:04;;;;;;;0.30;0.30;;;-0.30;99.90;;;;;;5120085;27;20039;-86
2022/02/26 04:33:31;;;;;;;0.30;0.30;;;0.10;99.90;;;;;;5102806;27;20038;-87
2022/02/26 04:35:59;;;;;;;0.20;0.20;;;-0.20;99.90;;;;;;5103041;27;20081;-95
2022/02/26 04:38:29;;;;;;;0.30;0.30;;;-0.20;99.90;;;;;;5119445;27;20501;-86
2022/02/26 04:40:59;;;;;;;0.30;0.30;;;-0.30;99.90;;;;;;5104144;27;20039;-94
2022/02/26 04:43:25;;;;;;;0.28;0.28;;;0.40;99.90;;;;;;5136545;27;20036;-87
2022/02/26 04:45:52;;;;;;;0.20;0.20;;;-0.20;99.90;;;;;;5119407;27;20042;-94
2022/02/26 04:48:19;;;;;;;0.20;0.20;;;0.90;99.90;;;;;;5119545;27;20031;-87
2022/02/26 04:50:46;;;;;;;0.30;0.30;;;0.70;99.90;;;;;;5135677;27;20149;-87
2022/02/26 04:53:12;;;;;;;0.30;0.30;;;1.10;99.90;;;;;;5102500;27;20049;-87
2022/02/26 04:55:39;;;;;;;0.30;0.30;;;0.90;99.90;;;;;;5118659;27;20035;-95
2022/02/26 04:58:06;;;;;;;0.30;0.30;;;-0.40;99.90;;;;;;5102121;27;20062;-94
2022/02/26 05:00:33;;;;;;;0.30;0.30;;;1.10;99.90;;;;;;5135842;27;20035;-87
2022/02/26 05:03:00;;;;;;;0.30;0.30;;;1.40;99.90;;;;;;5102369;27;20038;-95
2022/02/26 05:05:27;;;;;;;0.20;0.20;;;0.10;99.90;;;;;;5135399;27;20035;-87
2022/02/26 05:07:54;;;;;;;0.30;0.30;;;0.00;99.90;;;;;;5135377;27;20452;-93
2022/02/26 05:10:21;;;;;;;0.30;0.30;;;-0.20;99.90;;;;;;5118596;27;20415;-94
2022/02/26 05:12:47;;;;;;;0.25;0.25;;;0.00;99.90;;;;;;5135109;27;20043;-87
2022/02/26 05:15:14;;;;;;;0.20;0.20;;;1.10;99.90;;;;;;5101914;27;20043;-87
2022/02/26 05:17:41;;;;;;;0.40;0.40;;;1.50;99.90;;;;;;5134987;27;20074;-87
2022/02/26 05:20:09;;;;;;;0.30;0.30;;;1.10;99.90;;;;;;5152949;27;20042;-87
2022/02/26 05:22:37;;;;;;;0.30;0.30;;;0.00;99.90;;;;;;5118798;28;20125;-87
2022/02/26 05:25:10;;;;;;;0.30;0.30;;;0.90;99.90;;;;;;5135551;27;20070;-94
2022/02/26 05:27:38;;;;;;;0.30;0.30;;;0.00;99.90;;;;;;5118996;27;20037;-94
2022/02/26 05:30:05;;;;;;;0.30;0.30;;;1.40;99.90;;;;;;5135452;27;20081;-87
2022/02/26 05:32:32;;;;;;;0.30;0.30;;;-0.10;99.90;;;;;;5134853;27;20034;-94
2022/02/26 05:34:59;;;;;;;0.38;0.38;;;0.80;99.90;;;;;;5117615;27;20133;-87
2022/02/26 05:37:25;;;;;;;0.30;0.30;;;-0.20;99.90;;;;;;5102343;27;20579;-94
2022/02/26 05:39:52;;;;;;;0.20;0.20;;;-0.20;99.90;;;;;;5118279;27;20403;-87
2022/02/26 05:42:19;;;;;;;0.28;0.28;;;1.00;99.90;;;;;;5118259;27;20470;-94
2022/02/26 05:44:46;;;;;;;0.15;0.15;;;-0.20;99.90;;;;;;5117983;27;20855;-87
2022/02/26 05:47:12;;;;;;;0.30;0.30;;;-0.20;99.90;;;;;;5117928;27;20175;-87
2022/02/26 05:49:39;;;;;;;0.30;0.30;;;0.70;99.90;;;;;;5135297;27;20038;-95
2022/02/26 05:52:06;;;;;;;0.20;0.20;;;1.30;99.90;;;;;;5135179;27;20039;-95
2022/02/26 05:54:35;;;;;;;0.30;0.30;;;-0.20;99.90;;;;;;5118554;27;20043;-94
2022/02/26 05:57:03;;;;;;;0.20;0.20;;;-0.20;99.90;;;;;;5118019;27;20123;-87
2022/02/26 05:59:30;;;;;;;0.20;0.20;;;-0.20;99.90;;;;;;5118070;27;20043;-96
2022/02/26 06:01:57;;;;;;;0.30;0.30;;;0.20;99.90;;;;;;5118037;27;20035;-87
2022/02/26 06:04:23;;;;;;;0.30;0.30;;;-0.50;99.90;;;;;;5117796;27;20518;-95
2022/02/26 06:06:50;;;;;;;0.40;0.40;;;0.70;99.90;;;;;;5100930;27;20035;-95
2022/02/26 06:09:17;;;;;;;0.30;0.30;;;0.90;99.90;;;;;;5100715;27;20055;-94
2022/02/26 06:11:44;;;;;;;0.30;0.30;;;0.90;99.90;;;;;;5133860;27;20073;-95
2022/02/26 06:14:11;;;;;;;0.32;0.32;;;0.50;99.90;;;;;;5134399;28;20061;-87
2022/02/26 06:16:37;;;;;;;0.25;0.25;;;0.60;99.90;;;;;;5117426;28;20072;-87
2022/02/26 06:19:04;;;;;;;0.30;0.30;;;-0.60;99.90;;;;;;5134900;28;20399;-94
2022/02/26 06:21:31;;;;;;;0.30;0.30;;;0.70;99.90;;;;;;5103016;28;20046;-95
2022/02/26 06:23:58;;;;;;;0.20;0.20;;;0.30;99.90;;;;;;5134675;28;20046;-95
2022/02/26 06:26:24;;;;;;;0.30;0.30;;;0.80;99.90;;;;;;5117297;28;20172;-91
2022/02/26 06:28:51;;;;;;;0.30;0.30;;;-0.70;99.90;;;;;;5117476;28;20027;-87
2022/02/26 06:31:18;;;;;;;0.30;0.30;;;-0.70;99.90;;;;;;5117707;28;20074;-87
2022/02/26 06:33:45;;;;;;;0.30;0.30;;;0.40;99.90;;;;;;5133923;27;20453;-88
2022/02/26 06:36:12;;;;;;;0.30;0.30;;;0.10;99.90;;;;;;5121880;27;20121;-87
2022/02/26 06:38:38;;;;;;;0.30;0.30;;;0.50;99.90;;;;;;5138147;27;20743;-94
2022/02/26 06:41:05;;;;;;;0.30;0.30;;;0.40;99.90;;;;;;5105004;27;20043;-93
2022/02/26 06:43:32;;;;;;;0.20;0.20;;;-0.70;99.90;;;;;;5121910;27;20046;-94
2022/02/26 06:45:58;;;;;;;0.32;0.32;;;0.50;99.90;;;;;;5138179;27;20035;-93
2022/02/26 06:48:25;;;;;;;0.38;0.38;;;0.10;99.90;;;;;;5121575;27;20039;-87
2022/02/26 06:50:52;;;;;;;0.30;0.30;;;-0.80;99.90;;;;;;5104401;27;20380;-88
2022/02/26 06:53:19;;;;;;;0.40;0.40;;;0.60;99.90;;;;;;5121011;27;20050;-87
2022/02/26 06:55:46;;;;;;;0.40;0.40;;;-0.80;99.90;;;;;;5104776;27;20096;-94
2022/02/26 06:58:15;;;;;;;0.30;0.30;;;-1.60;99.90;;;;;;5138227;27;20047;-94
2022/02/26 07:00:42;;;;;;;0.30;0.30;;;0.20;99.90;;;;;;5137910;27;20452;-88
2022/02/26 07:03:09;;;;;;;0.30;0.30;;;-0.70;99.90;;;;;;5120696;27;20035;-94
2022/02/26 07:05:36;;;;;;;0.30;0.30;;;-0.70;99.90;;;;;;5121027;27;20622;-88
2022/02/26 07:08:02;;;;;;;0.30;0.30;;;-0.40;99.90;;;;;;5137634;27;20035;-94
2022/02/26 07:10:29;;;;;;;0.30;0.30;;;-0.70;99.90;;;;;;5116881;28;20107;-85
2022/02/26 07:12:56;;;;;;;0.20;0.20;;;0.80;99.90;;;;;;5133944;28;20054;-94
2022/02/26 07:15:23;;;;;;;0.20;0.20;;;-0.70;99.90;;;;;;5134002;28;20476;-87
2022/02/26 07:17:49;;;;;;;0.30;0.30;;;-0.70;99.90;;;;;;5117271;28;20047;-90
2022/02/26 07:20:16;;;;;;;0.32;0.32;;;0.20;99.90;;;;;;5117551;28;20036;-87
2022/02/26 07:22:43;;;;;;;0.30;0.30;;;0.10;99.90;;;;;;5147638;28;20032;-87
2022/02/26 07:25:10;;;;;;;0.30;0.30;;;0.70;99.90;;;;;;5097660;28;20039;-87
2022/02/26 07:27:37;;;;;;;0.30;0.30;;;-0.50;99.90;;;;;;5116531;28;20097;-93
2022/02/26 07:30:05;;;;;;;0.30;0.30;;;0.50;99.90;;;;;;5150394;28;20039;-87
2022/02/26 07:32:32;;;;;;;0.20;0.20;;;-0.40;99.90;;;;;;5137066;28;20047;-87
2022/02/26 07:34:59;;;;;;;0.30;0.30;;;0.70;99.90;;;;;;5116742;28;20480;-93
2022/02/26 07:37:26;;;;;;;0.30;0.30;;;0.80;99.90;;;;;;5099870;28;20517;-93
2022/02/26 07:39:54;;;;;;;0.20;0.20;;;0.00;99.90;;;;;;5099578;28;20039;-88
2022/02/26 07:42:21;;;;;;;0.30;0.30;;;-0.20;99.90;;;;;;5116264;28;20074;-88
2022/02/26 07:44:48;;;;;;;0.28;0.28;;;-0.20;99.90;;;;;;5116776;28;20052;-88
2022/02/26 07:47:18;;;;;;;0.22;0.22;;;-0.10;99.90;;;;;;5132065;28;20042;-90
2022/02/26 07:49:44;;;;;;;0.30;0.30;;;0.40;99.90;;;;;;5117389;27;20043;-89
2022/02/26 07:52:11;;;;;;;0.30;0.30;;;1.40;99.90;;;;;;5114929;27;20585;-88
2022/02/26 07:54:38;;;;;;;0.30;0.30;;;0.20;99.90;;;;;;5142815;28;20039;-90
2022/02/26 07:57:05;;;;;;;0.30;0.30;;;0.20;99.90;;;;;;5099771;28;20050;-89
2022/02/26 07:59:32;;;;;;;0.30;0.30;;;0.30;99.90;;;;;;5099436;28;20066;-87
2022/02/26 08:01:59;;;;;;;0.30;0.30;;;1.70;99.90;;;;;;5103176;27;20031;-87
2022/02/26 08:04:27;;;;;;;0.20;0.20;;;0.80;99.90;;;;;;5114772;28;20031;-87
2022/02/26 08:06:54;;;;;;;0.30;0.30;;;0.40;99.90;;;;;;5098003;28;20172;-87
2022/02/26 08:09:21;;;;;;;0.30;0.30;;;0.60;99.90;;;;;;5131941;28;20051;-88
2022/02/26 08:11:47;;;;;;;0.20;0.20;;;0.60;99.90;;;;;;5099946;28;20069;-89
2022/02/26 08:14:14;;;;;;;0.20;0.20;;;0.70;99.90;;;;;;5115705;28;20400;-89
2022/02/26 08:16:41;;;;;;;0.30;0.30;;;0.70;99.90;;;;;;5132695;28;20587;-87
2022/02/26 08:19:08;;;;;;;0.20;0.20;;;1.10;99.90;;;;;;5115641;28;20047;-89
2022/02/26 08:21:35;;;;;;;0.20;0.20;;;1.40;99.90;;;;;;5115717;28;20043;-89
2022/02/26 08:24:02;;;;;;;0.20;0.20;;;1.80;99.90;;;;;;5115426;28;20031;-87
2022/02/26 08:26:29;;;;;;;0.20;0.20;;;1.00;99.90;;;;;;5132772;28;20043;-90
2022/02/26 08:28:56;;;;;;;0.20;0.20;;;2.10;99.90;;;;;;5132523;28;20127;-90
2022/02/26 08:31:22;;;;;;;0.10;0.10;;;2.50;99.90;;;;;;5098350;28;20069;-87
2022/02/26 08:33:52;;;;;;;0.20;0.20;;;2.70;99.90;;;;;;5103147;28;20039;-91
2022/02/26 08:36:19;;;;;;;0.20;0.20;;;2.40;99.90;;;;;;5113834;28;20093;-87
2022/02/26 08:38:47;;;;;;;0.30;0.30;;;1.50;99.90;;;;;;5159319;27;20492;-90
2022/02/26 08:41:13;;;;;;;0.30;0.30;;;1.50;99.90;;;;;;5104405;28;20062;-91
2022/02/26 08:43:40;;;;;;;0.30;0.30;;;1.70;99.90;;;;;;5115307;28;20498;-89
2022/02/26 08:46:07;;;;;;;0.20;0.20;;;1.70;99.90;;;;;;5097760;28;20111;-86
2022/02/26 08:48:33;;;;;;;0.20;0.20;;;1.80;99.90;;;;;;5097944;28;20096;-87
2022/02/26 08:51:00;;;;;;;0.25;0.25;;;1.90;99.90;;;;;;5113452;28;20042;-87
2022/02/26 08:53:27;;;;;;;0.20;0.20;;;3.20;99.90;;;;;;5111020;28;20032;-91
2022/02/26 08:55:54;;;;;;;0.20;0.20;;;3.40;99.90;;;;;;5098682;28;20454;-87
2022/02/26 08:58:22;;;;;;;0.20;0.20;;;2.60;99.90;;;;;;5113123;28;20044;-92
2022/02/26 09:00:49;;;;;;;0.20;0.20;;;3.50;99.90;;;;;;5114299;28;20048;-86
2022/02/26 09:03:17;;;;;;;0.20;0.20;;;1.50;99.90;;;;;;5114817;28;20074;-90
2022/02/26 09:05:46;;;;;;;0.20;0.20;;;2.50;99.90;;;;;;5131858;28;20071;-89
2022/02/26 09:08:13;;;;;;;0.20;0.20;;;2.90;99.90;;;;;;5131312;27;20035;-86
2022/02/26 09:10:40;;;;;;;0.10;0.10;;;2.70;99.90;;;;;;5101201;27;20043;-87
2022/02/26 09:13:06;;;;;;;0.20;0.20;;;3.20;99.90;;;;;;5117146;27;20081;-87
2022/02/26 09:15:33;;;;;;;0.10;0.10;;;3.80;99.90;;;;;;5117890;27;20104;-90
2022/02/26 09:18:00;;;;;;;0.10;0.10;;;3.10;99.90;;;;;;5101910;27;20085;-87
2022/02/26 09:20:27;;;;;;;0.10;0.10;;;3.10;99.90;;;;;;5151601;27;20088;-89
2022/02/26 09:22:54;;;;;;;0.20;0.20;;;3.30;99.90;;;;;;5100227;27;20072;-86
2022/02/26 09:25:20;;;;;;;0.10;0.10;;;3.40;99.90;;;;;;5117706;27;20050;-87
2022/02/26 09:27:50;;;;;;;0.20;0.20;;;3.50;99.90;;;;;;5116346;27;20402;-86
2022/02/26 09:30:17;;;;;;;0.10;0.10;;;3.50;99.90;;;;;;5117189;27;20039;-87
2022/02/26 09:32:44;;;;;;;0.20;0.20;;;4.40;99.90;;;;;;5117228;27;20042;-87
2022/02/26 09:35:11;;;;;;;0.10;0.10;;;4.50;99.90;;;;;;5117301;27;20483;-87
2022/02/26 09:37:38;;;;;;;0.10;0.10;;;3.90;99.90;;;;;;5117101;27;20054;-90
2022/02/26 09:40:05;;;;;;;0.10;0.10;;;4.00;99.90;;;;;;5116864;27;20042;-90
2022/02/26 09:42:32;;;;;;;0.10;0.10;;;4.10;99.90;;;;;;5134755;27;20119;-86
2022/02/26 09:44:59;;;;;;;0.10;0.10;;;4.60;99.90;;;;;;5117511;27;20554;-90
2022/02/26 09:47:26;;;;;;;0.10;0.10;;;4.20;99.90;;;;;;5117089;27;20445;-90
2022/02/26 09:49:53;;;;;;;0.10;0.10;;;3.90;99.90;;;;;;5117471;27;20063;-90
2022/02/26 09:52:21;;;;;;;0.10;0.10;;;4.40;99.90;;;;;;5100203;27;20039;-87
2022/02/26 09:54:48;;;;;;;0.10;0.10;;;4.50;99.90;;;;;;5133356;27;20204;-87
2022/02/26 09:57:16;;;;;;;0.10;0.10;;;5.70;99.90;;;;;;5116961;27;20069;-90
2022/02/26 09:59:44;;;;;;;0.10;0.10;;;4.90;99.90;;;;;;5133940;27;20046;-89
2022/02/26 10:02:12;;;;;;;0.10;0.10;;;5.40;99.90;;;;;;5113494;28;20040;-87
2022/02/26 10:04:51;;;;;;;0.10;0.10;;;4.80;99.90;;;;;;5088816;27;20118;-87
2022/02/26 10:07:20;;;;;;;0.10;0.10;;;4.90;99.90;;;;;;5118478;27;20442;-90
2022/02/26 10:09:47;;;;;;;0.10;0.10;;;5.70;99.90;;;;;;5116742;27;20047;-87
2022/02/26 10:12:31;;;;;;;0.10;0.10;;;5.00;99.90;;;;;;5116572;27;20515;-89
2022/02/26 10:15:03;;;;;;;0.10;0.10;;;5.00;99.90;;;;;;5133788;28;20119;-90
2022/02/26 10:17:30;;;;;;;0.10;0.10;;;5.00;99.90;;;;;;5134296;28;20070;-87
2022/02/26 10:20:07;;;;;;;0.10;0.10;;;5.00;99.90;;;;;;5133924;28;20147;-90
2022/02/26 10:22:39;;;;;;;0.10;0.10;;;5.10;99.90;;;;;;5133407;28;20039;-91
2022/02/26 10:25:13;;;;;;;0.10;0.10;;;5.20;99.90;;;;;;5133843;28;20055;-88
2022/02/26 10:27:48;;;;;;;0.10;0.10;;;5.30;99.90;;;;;;5133788;28;20035;-87
2022/02/26 10:30:30;;;;;;;0.10;0.10;;;5.30;99.90;;;;;;5132624;28;20047;-91
2022/02/26 10:33:03;;;;;;;0.10;0.10;;;5.30;99.90;;;;;;5134014;28;20613;-87
2022/02/26 10:35:41;;;;;;;0.10;0.10;;;5.40;99.90;;;;;;5133636;28;20043;-87
2022/02/26 10:38:15;;;;;;;0.10;0.10;;;5.40;99.90;;;;;;5133069;28;20043;-90
2022/02/26 10:41:09;;;;;;;0.00;0.00;;;5.50;99.90;;;;;;5134495;28;20064;-91
2022/02/26 10:43:35;;;;;;;0.10;0.10;;;5.60;99.90;;;;;;5132916;27;20042;-91
2022/02/26 10:46:30;;;;;;;0.10;0.10;;;5.70;99.90;;;;;;5133905;28;20043;-90
2022/02/26 10:49:00;;;;;;;0.10;0.10;;;5.80;99.90;;;;;;5133716;28;20380;-87
2022/02/26 10:51:30;;;;;;;0.10;0.10;;;5.80;99.90;;;;;;5149739;28;20073;-87
2022/02/26 10:53:59;;;;;;;0.10;0.10;;;5.90;99.90;;;;;;5116884;28;20043;-87
2022/02/26 10:56:37;;;;;;;0.10;0.10;;;5.90;99.90;;;;;;5133094;28;20129;-86
2022/02/26 10:59:05;;;;;;;0.10;0.10;;;5.90;99.90;;;;;;5133156;28;20050;-87
2022/02/26 11:01:33;;;;;;;0.10;0.10;;;6.10;99.90;;;;;;5116353;28;20500;-86
2022/02/26 11:04:01;;;;;;;0.10;0.10;;;7.10;99.90;;;;;;5116605;28;20087;-90
2022/02/26 11:06:29;;;;;;;0.10;0.10;;;6.20;99.90;;;;;;5116708;28;20092;-88
2022/02/26 11:08:57;;;;;;;0.10;0.10;;;6.20;99.90;;;;;;5132470;28;20047;-85
2022/02/26 11:11:23;;;;;;;0.10;0.10;;;6.40;99.90;;;;;;5132925;28;20089;-89
2022/02/26 11:13:53;;;;;;;0.10;0.10;;;6.40;99.90;;;;;;5132823;28;20082;-86
2022/02/26 11:16:23;;;;;;;0.10;0.10;;;6.40;99.90;;;;;;5150405;28;20031;-91
2022/02/26 11:18:53;;;;;;;0.10;0.10;;;6.50;99.90;;;;;;5132926;28;20672;-88
2022/02/26 11:21:21;;;;;;;0.10;0.10;;;6.80;99.90;;;;;;5118003;27;20487;-92
2022/02/26 11:23:49;;;;;;;0.00;0.00;;;6.50;99.90;;;;;;5120642;27;20045;-88
2022/02/26 11:26:19;;;;;;;0.10;0.10;;;6.50;99.90;;;;;;5120412;27;20039;-90
2022/02/26 11:28:49;;;;;;;0.10;0.10;;;6.50;99.90;;;;;;5136748;27;20404;-88
2022/02/26 11:31:26;;;;;;;0.08;0.08;;;6.50;99.90;;;;;;5136381;27;20031;-87
2022/02/26 11:33:54;;;;;;;0.00;0.00;;;6.60;99.90;;;;;;5139303;27;20043;-91
2022/02/26 11:36:21;;;;;;;0.10;0.10;;;6.60;99.90;;;;;;5119552;27;20101;-88
2022/02/26 11:38:48;;;;;;;0.10;0.10;;;6.60;99.90;;;;;;5119437;27;20104;-91
2022/02/26 11:41:14;;;;;;;0.10;0.10;;;6.60;99.90;;;;;;5119835;27;20046;-88
2022/02/26 11:43:45;;;;;;;0.10;0.10;;;6.70;99.90;;;;;;5136480;27;20402;-91
2022/02/26 11:46:27;;;;;;;0.10;0.10;;;6.80;99.90;;;;;;5136621;27;20511;-88
2022/02/26 11:48:55;;;;;;;0.10;0.10;;;6.70;99.90;;;;;;5136345;27;20035;-87
2022/02/26 11:51:36;;;;;;;0.08;0.08;;;6.70;99.90;;;;;;5136399;27;20047;-91
2022/02/26 11:54:07;;;;;;;0.03;0.03;;;6.80;99.90;;;;;;5119913;27;20765;-88
2022/02/26 11:56:45;;;;;;;0.10;0.10;;;6.70;99.90;;;;;;5119608;27;20062;-88
2022/02/26 11:59:12;;;;;;;0.05;0.05;;;6.70;99.90;;;;;;5135937;27;20411;-90
2022/02/26 12:02:07;;;;;;;0.10;0.10;;;6.70;99.90;;;;;;5136402;27;20130;-92
2022/02/26 12:04:56;;;;;;;0.10;0.10;;;6.70;99.90;;;;;;5136143;27;20499;-88
2022/02/26 12:07:39;;;;;;;0.10;0.10;;;6.80;99.90;;;;;;5153345;27;20476;-88
2022/02/26 12:10:14;;;;;;;0.10;0.10;;;6.90;99.90;;;;;;5135927;27;20176;-91
2022/02/26 12:12:45;;;;;;;0.00;0.00;;;6.80;99.90;;;;;;5136317;27;20142;-92
2022/02/26 12:15:18;;;;;;;0.10;0.10;;;6.80;99.90;;;;;;5136093;27;20039;-92
2022/02/26 12:18:13;;;;;;;0.10;0.10;;;6.90;99.90;;;;;;5135768;27;20092;-92
2022/02/26 12:20:40;;;;;;;0.05;0.05;;;6.90;99.90;;;;;;5148773;27;20058;-87
2022/02/26 12:23:09;;;;;;;0.00;0.00;;;6.90;99.90;;;;;;5135937;27;20031;-87
2022/02/26 12:25:43;;;;;;;0.00;0.00;;;6.70;99.90;;;;;;5135719;27;20039;-92
2022/02/26 12:28:14;;;;;;;0.10;0.10;;;6.50;99.90;;;;;;5135016;27;20088;-87
2022/02/26 12:31:07;;;;;;;0.03;0.03;;;7.10;99.90;;;;;;5131916;27;20125;-87
2022/02/26 12:33:45;;;;;;;0.10;0.10;;;6.50;99.90;;;;;;5120123;27;20035;-92
2022/02/26 12:36:20;;;;;;;0.05;0.05;;;6.60;99.90;;;;;;5118309;27;20042;-87
2022/02/26 12:38:51;;;;;;;0.00;0.00;;;7.10;99.90;;;;;;5135681;27;20126;-92
2022/02/26 12:41:29;;;;;;;0.10;0.10;;;6.70;99.90;;;;;;5137118;27;20078;-92
2022/02/26 12:43:58;;;;;;;0.10;0.10;;;6.80;99.90;;;;;;5113761;27;20444;-88
2022/02/26 12:46:27;;;;;;;0.10;0.10;;;6.80;99.90;;;;;;5135396;27;20046;-93
2022/02/26 12:49:00;;;;;;;0.10;0.10;;;6.80;99.90;;;;;;5134709;27;20035;-88
2022/02/26 12:51:33;;;;;;;0.10;0.10;;;6.90;99.90;;;;;;5135211;27;20045;-88
2022/02/26 12:54:01;;;;;;;0.10;0.10;;;6.90;99.90;;;;;;5118474;27;20039;-92
2022/02/26 12:56:33;;;;;;;0.10;0.10;;;6.90;99.90;;;;;;5135722;27;20043;-92
2022/02/26 12:59:18;;;;;;;0.10;0.10;;;7.00;99.90;;;;;;5135967;27;20039;-88
2022/02/26 13:01:47;;;;;;;0.00;0.00;;;7.00;99.90;;;;;;5132569;27;20090;-88
2022/02/26 13:04:20;;;;;;;0.10;0.10;;;7.00;99.90;;;;;;5146712;27;20043;-92